Historyczne dane pomiarowe

Dodano dane terminowe – wersja testowa.

Dane z okresu 1951-2019

Wersja bazy: 1.34 [2019-03-16, lista zmian], aktualizacja planowana na 2019-04-15

Dane meteo z obszaru Polski uzyskane na podstawie danych udostępnionych przez Instytut Meteorologii i Gospodarki Wodnej – Państwowy Instytut Badawczy.

 

Wybierz Datę:    

       

TemperaturaWilgotnośćWiatrCiśnienieOpadyŚniegCzas trwania zjawisk
 Stacja t tx tn tng RH VA  wxwx mslp ppp RRR   cm mm wxwxwxwxwxwxwx
1969-02-15 -5.6 -1.8-19.5-24.4 60.5- 8.0 5.7---- 6.5-- 5---------
1969-02-14-13.1 -7.3-17.9-10.5 63.8- 2.7 1.3---- 0.0-- 5---------
1969-02-13-11.6 -9.6-15.0-16.1 62.0- 8.0 3.3---- 2.4-- 3---------
1969-02-12-11.3 -5.9-13.2-13.0 66.3- 3.3 3.0---- 0.0-- 4---------
1969-02-11 -5.6 -1.0 -9.2-14.0 75.0- 6.3 0.0---- 0.0-- 4---------
1969-02-10 -2.6 -0.9 -3.4 -3.8 86.3- 7.7 1.3---- 1.5-- 3---------
1969-02-09 -2.0 1.2 -5.4 -8.0 81.5- 4.7 1.7---- 5.5------------
1969-02-08 -1.3 2.2 -3.0 -6.9 92.3- 6.3 3.3---- 0.0------------
1969-02-07 -1.3 1.6 -5.1 -6.6 76.0- 2.7 4.0---- 0.0------------
1969-02-06 -4.7 -2.1 -7.1-11.3 80.3- 0.0 2.7---- 0.0------------
1969-02-05 -2.9 -0.5 -6.0 -9.3 82.8- 2.3 1.3---- 0.0------------
1969-02-04 -0.6 1.0 -1.9 -0.5 84.5- 7.3 4.0---- 0.1-- 1---------
1969-02-03 0.6 2.8 0.0 -1.7 78.8- 5.7 5.7---- 0.6------------
1969-02-02 2.4 6.7 0.2 -3.2 86.8- 5.3 3.3---- 0.0------------
1969-02-01 1.3 3.5 0.6 -0.2 87.5- 6.0 3.0---- 0.0------------
1969-01-31 3.9 6.9 2.2 1.2 87.0- 7.7 4.3---- 3.1------------
1969-01-30 2.3 3.2 0.9 -0.3 95.3- 8.0 4.7---- 5.2-- 3---------
1969-01-29 1.7 3.3 -0.5 -2.5 90.5- 7.7 3.3---- 4.5-- 4---------
1969-01-28 0.9 1.5 -5.9 -8.0 98.5- 8.0 1.0---- 0.0-- 6---------
1969-01-27 -4.4 -1.6 -5.7 -5.9 78.0- 3.0 2.3---- 0.0-- 6---------
1969-01-26 -3.5 -2.2-12.1-12.8 85.3- 8.0 1.0---- 0.0-- 6---------
1969-01-25 -7.8 0.2-10.6-14.0 82.8- 1.7 0.3---- 0.0-- 7---------
1969-01-24 0.2 1.4 -0.5 -0.5 94.5- 8.0 5.0---- 2.4-- 5---------
1969-01-23 1.9 3.9 0.7 -0.3 94.5- 8.0 4.7---- 3.6-- 9---------
1969-01-22 -2.6 1.0-11.9-10.8 81.3- 8.0 3.3---- 3.5-- 13---------
1969-01-21-10.6 -7.8-15.2-18.8 69.8- 1.3 3.3---- 0.0-- 15---------
1969-01-20 -5.9 0.9 -8.4 -1.7 83.3- 5.3 4.0---- 1.8-- 10---------
1969-01-19 0.2 1.7 -1.7 -3.1 97.0- 6.0 0.0---- 3.0-- 5---------
1969-01-18 0.0 0.9 -0.9 -0.4 97.5- 8.0 2.0---- 1.2-- 5---------
1969-01-17 -0.2 1.5 -3.7 -7.7 98.5- 8.0 1.7---- 4.3-- 7---------
1969-01-16 -0.3 2.0 -1.9 -0.4100.0- 5.3 0.0---- 2.1-- 7---------
1969-01-15 2.0 3.8 -4.3-11.8 91.8- 7.7 3.7---- 4.8-- 11---------
1969-01-14 -4.3 0.7-10.3-15.0 92.5- 2.0 1.3---- 0.0-- 12---------
1969-01-13 -6.9 -3.2-11.8-18.0 79.8- 2.7 1.7---- 0.0-- 12---------
1969-01-12 -6.5 -2.2-15.4-23.3 84.8- 2.3 0.7---- 0.0-- 12---------
1969-01-11-12.7 -8.3-17.9-23.3 75.8- 0.0 0.7---- 0.0-- 12---------
1969-01-10-16.7-12.6-21.1-23.5 83.0- 0.0 0.7---- 0.0-- 12---------
1969-01-09-15.7 -9.1-18.4-23.1 85.5- 0.0 0.3---- 0.0-- 12---------
1969-01-08 -8.7 -3.2-11.6-17.0 81.3- 0.0 2.7---- 0.0-- 12---------
1969-01-07 -7.5 -3.5-12.4-10.8 87.0- 2.3 2.7---- 0.0-- 12---------
1969-01-06-12.4-11.1-17.5-19.6 77.3- 5.3 2.7---- 0.0-- 12---------
1969-01-05-13.1 -6.1-17.2-13.3 70.3- 3.3 2.7---- 0.0-- 12---------
1969-01-04 -6.2 -3.1 -8.1 -9.2 87.0- 5.3 2.0---- 0.0-- 12---------
1969-01-03 -6.6 -1.1 -8.9 -3.0 84.3- 6.0 4.3---- 0.0-- 15---------
1969-01-02 -3.3 -0.6 -9.5-13.7 89.8- 8.0 3.7---- 4.3-- 10---------
1969-01-01 -6.5 -3.2-14.7-19.9 77.0- 4.3 2.7---- 0.0-- 11---------
1968-12-31 -9.1 -5.0-11.7 -9.3 76.3- 3.3 0.7---- 1.0-- 7---------
1968-12-30-10.3 -9.3-19.1-22.6 73.5- 6.0 0.0---- 0.0-- 8---------
1968-12-29-12.6 -4.2-17.7-19.3 52.3- 3.3 0.0---- 0.0-- 8---------
1968-12-28 -4.0 -1.3 -4.7 -8.0 84.3- 7.7 0.0---- 0.3-- 9---------
1968-12-27 -2.0 -0.4 -3.6 -7.4 90.3- 8.0 1.0---- 1.4-- 9---------
1968-12-26 -0.8 0.3 -1.7 -1.4 91.0- 7.7 1.0---- 5.6-- 3---------
1968-12-25 -0.3 0.0 -1.8 -5.4 92.5- 7.7 1.3---- 2.3------------
1968-12-24 0.0 4.1 -1.3 -0.3 97.0- 5.3 2.3---- 0.0------------
1968-12-23 2.2 3.8 0.0 -0.3100.0- 8.0 2.0---- 6.5-- 2---------
1968-12-22 -0.1 0.5 -1.1 -1.4 97.3- 8.0 0.0---- 1.9-- 3---------
1968-12-21 -0.9 0.0 -4.4 -4.4 93.3- 8.0 3.0---- 0.0-- 3---------
1968-12-20 -3.7 -0.2 -4.3 -3.7 97.5- 8.0 1.0---- 0.0-- 3---------
1968-12-19 -0.8 -0.4 -1.6 -1.9 94.5- 8.0 1.7---- 0.0-- 3---------
1968-12-18 -1.7 0.5 -4.7 -7.8 96.5- 7.7 2.0---- 0.8-- 3---------
353.0 ms

 

Źródłem pochodzenia danych jest Instytut Meteorologii i Gospodarki Wodnej – Państwowy Instytut Badawczy. Dane Instytutu Meteorologii i Gospodarki Wodnej – Państwowego Instytutu Badawczego zostały przetworzone.

Dane źródłowe można odnaleźć na stronie https://dane.imgw.pl